Time;durP1;ratioP1;P1;durP2;ratioP2;P2;SDS_P1;SDS_P2;PMS_P1;PMS_P2;Temp;Humidity;BMP_temperature;BMP_pressure;BME280_temperature;BME280_humidity;BME280_pressure;Samples;Min_cycle;Max_cycle;Signal;HPM_P1;HPM_P2
2024/03/24 00:01:16;;;;;;;8.27;3.15;;;;;;;3.55;100.00;68782.75;5090908;28;20055;-47
2024/03/24 00:03:42;;;;;;;7.82;3.17;;;;;;;3.57;100.00;68781.91;5089113;28;20075;-47
2024/03/24 00:06:09;;;;;;;9.45;3.35;;;;;;;3.60;100.00;68788.00;5087096;28;20040;-47
2024/03/24 00:08:35;;;;;;;8.93;3.03;;;;;;;3.62;100.00;68782.00;5090811;28;20583;-47
2024/03/24 00:11:03;;;;;;;8.77;3.63;;;;;;;3.62;100.00;68787.16;5090977;28;20488;-47
2024/03/24 00:13:31;;;;;;;8.45;3.47;;;;;;;3.65;100.00;68791.19;5090916;28;20066;-48
2024/03/24 00:16:00;;;;;;;7.65;3.05;;;;;;;3.65;100.00;68793.78;5090106;28;20055;-49
2024/03/24 00:18:26;;;;;;;10.10;3.60;;;;;;;3.69;100.00;68797.84;5073696;28;20044;-48
2024/03/24 00:20:53;;;;;;;9.85;3.45;;;;;;;3.72;100.00;68799.34;5090730;28;20048;-50
2024/03/24 00:23:20;;;;;;;11.20;3.88;;;;;;;3.74;100.00;68801.06;5090592;28;20070;-49
2024/03/24 00:25:47;;;;;;;9.68;3.67;;;;;;;3.77;100.00;68801.97;5087534;28;20553;-48
2024/03/24 00:28:13;;;;;;;9.10;3.50;;;;;;;3.78;100.00;68803.13;5088215;28;20052;-49
2024/03/24 00:30:40;;;;;;;11.68;3.80;;;;;;;3.80;100.00;68804.88;5087782;28;20542;-48
2024/03/24 00:33:08;;;;;;;9.85;3.70;;;;;;;3.83;100.00;68810.94;5088076;28;20028;-49
2024/03/24 00:35:35;;;;;;;9.13;3.50;;;;;;;3.87;100.00;68813.00;5087151;28;20043;-48
2024/03/24 00:38:01;;;;;;;11.00;3.58;;;;;;;3.88;100.00;68814.16;5090120;28;20402;-47
2024/03/24 00:40:28;;;;;;;12.15;4.03;;;;;;;3.96;100.00;68828.03;5089494;28;20066;-49
2024/03/24 00:42:54;;;;;;;10.85;4.63;;;;;;;3.95;100.00;68826.88;5086938;28;20054;-48
2024/03/24 00:45:21;;;;;;;10.10;3.53;;;;;;;3.96;100.00;68826.03;5087347;28;20807;-47
2024/03/24 00:47:49;;;;;;;8.60;4.28;;;;;;;3.96;100.00;68828.03;5089217;28;20422;-48
2024/03/24 00:50:18;;;;;;;9.13;4.30;;;;;;;3.95;100.00;68824.28;5090287;28;20055;-50
2024/03/24 00:52:44;;;;;;;10.13;4.40;;;;;;;3.99;100.00;68826.34;5049515;28;20215;-48
2024/03/24 00:55:11;;;;;;;9.77;3.97;;;;;;;4.01;100.00;68836.44;5063298;28;20374;-48
2024/03/24 00:57:37;;;;;;;10.10;4.50;;;;;;;4.00;100.00;68828.09;5047586;28;20206;-48
2024/03/24 01:00:06;;;;;;;9.52;4.68;;;;;;;4.02;100.00;68835.59;5065145;28;20547;-48
2024/03/24 01:02:32;;;;;;;13.18;4.82;;;;;;;4.03;100.00;68838.75;5050019;28;20064;-49
2024/03/24 01:05:00;;;;;;;10.52;5.40;;;;;;;4.01;100.00;68831.25;5050025;28;20041;-50
2024/03/24 01:07:29;;;;;;;11.40;5.32;;;;;;;4.05;100.00;68841.06;5048452;28;20048;-49
2024/03/24 01:09:56;;;;;;;12.48;5.75;;;;;;;4.05;100.00;68833.91;5046558;28;20522;-47
2024/03/24 01:12:23;;;;;;;10.40;5.85;;;;;;;4.07;100.00;68838.78;5048557;28;20063;-49
2024/03/24 01:14:50;;;;;;;10.25;5.80;;;;;;;4.05;100.00;68841.06;5064398;28;20805;-48
2024/03/24 01:17:17;;;;;;;12.07;5.75;;;;;;;4.06;100.00;68839.63;5046382;28;20546;-47
2024/03/24 01:19:44;;;;;;;12.60;6.47;;;;;;;4.04;100.00;68835.31;5049577;28;20048;-49
2024/03/24 01:22:10;;;;;;;10.27;5.65;;;;;;;4.03;100.00;68836.16;5031276;28;20063;-47
2024/03/24 01:24:38;;;;;;;11.30;6.22;;;;;;;4.03;100.00;68834.16;5046628;28;20091;-51
2024/03/24 01:27:05;;;;;;;10.15;6.25;;;;;;;4.09;100.00;68839.97;5050815;28;20045;-48
2024/03/24 01:29:32;;;;;;;10.30;6.38;;;;;;;4.06;100.00;68840.22;5070449;28;20045;-50
2024/03/24 01:31:58;;;;;;;12.88;5.97;;;;;;;4.07;100.00;68841.38;5053516;28;20051;-50
2024/03/24 01:34:26;;;;;;;11.15;5.88;;;;;;;4.07;100.00;68840.78;5067406;28;20480;-49
2024/03/24 01:36:52;;;;;;;9.88;6.13;;;;;;;4.02;100.00;68832.41;5050898;28;20544;-51
2024/03/24 01:39:19;;;;;;;12.10;6.13;;;;;;;4.05;100.00;68835.91;5053862;28;20037;-47
2024/03/24 01:41:47;;;;;;;9.82;6.07;;;;;;;4.03;100.00;68834.16;5051804;28;20052;-49
2024/03/24 01:44:14;;;;;;;13.57;6.70;;;;;;;4.02;100.00;68835.00;5067016;28;20044;-50
2024/03/24 01:46:40;;;;;;;11.25;7.13;;;;;;;4.05;100.00;68833.31;5036887;28;20079;-47
2024/03/24 01:49:07;;;;;;;11.60;6.13;;;;;;;4.05;100.00;68838.50;5070341;28;20459;-50
2024/03/24 01:51:35;;;;;;;9.88;6.35;;;;;;;4.01;100.00;68834.41;5074305;28;20568;-47
2024/03/24 01:54:02;;;;;;;9.32;5.93;;;;;;;4.03;100.00;68833.56;5076700;28;20048;-48
2024/03/24 01:56:29;;;;;;;13.00;6.65;;;;;;;4.06;100.00;68835.06;5093490;28;20052;-47
2024/03/24 01:58:57;;;;;;;13.25;7.32;;;;;;;4.08;100.00;68836.81;5093360;28;20071;-50
2024/03/24 02:01:23;;;;;;;12.15;6.60;;;;;;;4.12;100.00;68846.00;5093467;28;20032;-50
2024/03/24 02:03:51;;;;;;;12.93;6.68;;;;;;;4.15;100.00;68849.50;5093577;28;20455;-45
2024/03/24 02:06:17;;;;;;;12.85;7.28;;;;;;;4.16;100.00;68850.66;5093284;28;20040;-47
2024/03/24 02:08:44;;;;;;;11.30;7.25;;;;;;;4.14;100.00;68846.34;5093221;28;20138;-47
2024/03/24 02:11:10;;;;;;;15.25;8.18;;;;;;;4.13;100.00;68842.59;5093606;28;20048;-48
2024/03/24 02:13:37;;;;;;;12.80;7.20;;;;;;;4.12;100.00;68843.44;5093483;28;20052;-47
2024/03/24 02:16:05;;;;;;;12.05;6.82;;;;;;;4.16;100.00;68846.09;5093500;28;20073;-47
2024/03/24 02:18:33;;;;;;;14.00;7.20;;;;;;;4.17;100.00;68847.25;5076250;28;20060;-48
2024/03/24 02:20:59;;;;;;;14.93;7.07;;;;;;;4.18;100.00;68853.00;5076409;28;20040;-46
2024/03/24 02:23:28;;;;;;;12.38;6.80;;;;;;;4.20;100.00;68855.91;5093192;28;20522;-45
2024/03/24 02:25:56;;;;;;;12.15;6.70;;;;;;;4.22;100.00;68855.63;5093106;28;20044;-48
2024/03/24 02:28:23;;;;;;;12.63;6.88;;;;;;;4.23;100.00;68858.81;5093218;28;20039;-47
2024/03/24 02:30:49;;;;;;;14.15;6.95;;;;;;;4.27;100.00;68858.28;5092983;28;20051;-47
2024/03/24 02:33:17;;;;;;;11.45;6.13;;;;;;;4.27;100.00;68860.25;5076005;28;20058;-47
2024/03/24 02:35:45;;;;;;;11.90;6.57;;;;;;;4.32;100.00;68866.06;5090404;28;20415;-47
2024/03/24 02:38:12;;;;;;;13.38;6.72;;;;;;;4.33;100.00;68869.81;5087915;28;20785;-47
2024/03/24 02:40:39;;;;;;;13.52;6.22;;;;;;;4.31;100.00;68865.50;5091989;28;20403;-46
2024/03/24 02:43:06;;;;;;;11.30;6.20;;;;;;;4.32;100.00;68866.66;5092756;28;20032;-47
2024/03/24 02:45:32;;;;;;;12.00;5.68;;;;;;;4.33;100.00;68867.81;5092803;28;20530;-47
2024/03/24 02:48:00;;;;;;;13.55;7.75;;;;;;;4.31;100.00;68860.34;5092641;28;20048;-47
2024/03/24 02:50:26;;;;;;;18.88;7.57;;;;;;;4.32;100.00;68863.50;5092598;28;20059;-47
2024/03/24 02:52:56;;;;;;;12.93;6.70;;;;;;;4.31;100.00;68868.09;5092418;28;20052;-47
2024/03/24 02:55:25;;;;;;;11.10;6.63;;;;;;;4.38;100.00;68875.63;5092528;28;20051;-51
2024/03/24 02:57:53;;;;;;;13.70;7.20;;;;;;;4.37;100.00;68874.47;5092407;28;20052;-48
2024/03/24 03:00:20;;;;;;;14.45;6.78;;;;;;;4.36;100.00;68871.31;5092473;28;20036;-48
2024/03/24 03:02:47;;;;;;;14.98;7.40;;;;;;;4.38;100.00;68873.06;5092455;28;20043;-46
2024/03/24 03:05:13;;;;;;;13.73;7.15;;;;;;;4.41;100.00;68873.94;5092314;28;20502;-47
2024/03/24 03:07:43;;;;;;;17.45;7.55;;;;;;;4.40;100.00;68872.78;5092093;28;20089;-48
2024/03/24 03:10:09;;;;;;;12.50;7.05;;;;;;;4.40;100.00;68877.94;5092276;28;20484;-46
2024/03/24 03:12:37;;;;;;;12.63;7.38;;;;;;;4.39;100.00;68877.38;5092234;28;20082;-47
2024/03/24 03:15:05;;;;;;;15.43;8.63;;;;;;;4.41;100.00;68879.13;5092237;28;20040;-47
2024/03/24 03:17:33;;;;;;;12.88;7.80;;;;;;;4.43;100.00;68878.88;5090203;28;20494;-47
2024/03/24 03:20:00;;;;;;;13.27;7.68;;;;;;;4.44;100.00;68880.00;5071870;28;20055;-48
2024/03/24 03:22:27;;;;;;;14.70;7.95;;;;;;;4.43;100.00;68880.84;5091444;28;20560;-51
2024/03/24 03:24:53;;;;;;;12.38;6.97;;;;;;;4.44;100.00;68880.00;5091788;28;20059;-51
2024/03/24 03:27:21;;;;;;;12.93;6.75;;;;;;;4.48;100.00;68882.06;5091746;28;20047;-50
2024/03/24 03:29:47;;;;;;;14.30;7.18;;;;;;;4.47;100.00;68880.94;5091475;28;20505;-51
2024/03/24 03:32:16;;;;;;;12.93;7.05;;;;;;;4.48;100.00;68886.66;5074897;28;20105;-52
2024/03/24 03:34:42;;;;;;;11.82;7.07;;;;;;;4.50;100.00;68888.97;5091642;28;20415;-49
2024/03/24 03:37:15;;;;;;;15.10;7.82;;;;;;;4.50;100.00;68887.00;5091338;28;20044;-50
2024/03/24 03:39:47;;;;;;;14.30;7.70;;;;;;;4.51;100.00;68887.56;5074234;28;20131;-46
2024/03/24 03:42:17;;;;;;;12.68;7.50;;;;;;;4.48;100.00;68886.66;5074483;28;20051;-47
2024/03/24 03:44:46;;;;;;;16.10;7.65;;;;;;;4.45;100.00;68883.75;5091662;28;20068;-47
2024/03/24 03:47:15;;;;;;;13.77;7.47;;;;;;;4.49;100.00;68885.25;5091600;28;20055;-47
2024/03/24 03:49:42;;;;;;;13.73;7.95;;;;;;;4.48;100.00;68882.06;5091167;28;20044;-46
2024/03/24 03:52:10;;;;;;;14.77;7.85;;;;;;;4.48;100.00;68884.66;5089366;28;20057;-49
2024/03/24 03:54:37;;;;;;;16.23;8.23;;;;;;;4.49;100.00;68888.41;5088457;28;20040;-47
2024/03/24 03:57:05;;;;;;;14.93;7.45;;;;;;;4.53;100.00;68893.06;5089719;28;20109;-47
2024/03/24 03:59:31;;;;;;;13.95;7.07;;;;;;;4.54;100.00;68893.63;5074361;28;20051;-47
2024/03/24 04:01:59;;;;;;;12.40;7.40;;;;;;;4.52;100.00;68888.72;5090714;28;20429;-48
2024/03/24 04:04:25;;;;;;;15.50;7.10;;;;;;;4.54;100.00;68891.03;5088171;28;20066;-48
2024/03/24 04:06:53;;;;;;;11.15;4.53;;;;;;;4.42;100.00;68880.28;5088039;28;21048;-48
2024/03/24 04:09:20;;;;;;;5.40;2.10;;;;;;;4.26;100.00;68864.28;5088674;28;20044;-49
2024/03/24 04:11:47;;;;;;;4.28;1.60;;;;;;;4.18;100.00;68853.00;5087905;28;20044;-49
2024/03/24 04:14:14;;;;;;;3.97;1.70;;;;;;;4.20;100.00;68850.16;5090332;28;20040;-47
2024/03/24 04:16:41;;;;;;;4.60;1.35;;;;;;;4.14;100.00;68848.91;5090781;28;20044;-49
2024/03/24 04:19:08;;;;;;;3.90;1.50;;;;;;;4.14;100.00;68848.34;5087536;28;20109;-51
2024/03/24 04:21:35;;;;;;;4.07;1.70;;;;;;;4.06;100.00;68834.47;5088066;28;20495;-49
2024/03/24 04:24:03;;;;;;;4.00;1.20;;;;;;;4.06;100.00;68839.63;5090717;28;20044;-51
2024/03/24 04:26:30;;;;;;;2.53;0.98;;;;;;;4.10;100.00;68841.13;5090798;28;20090;-52
2024/03/24 04:28:56;;;;;;;4.05;1.30;;;;;;;4.07;100.00;68840.78;5090424;28;20430;-48
2024/03/24 04:31:23;;;;;;;3.40;1.20;;;;;;;4.08;100.00;68839.38;5090088;28;20077;-49
2024/03/24 04:33:50;;;;;;;2.67;1.17;;;;;;;4.07;100.00;68841.38;5087364;28;20065;-48
2024/03/24 04:36:17;;;;;;;3.05;1.15;;;;;;;4.05;100.00;68833.91;5086936;28;20511;-48
2024/03/24 04:38:43;;;;;;;2.35;1.30;;;;;;;4.00;100.00;68830.09;5088345;28;20139;-50
2024/03/24 04:41:11;;;;;;;4.72;1.45;;;;;;;3.98;100.00;68827.75;5090595;28;20047;-48
2024/03/24 04:43:38;;;;;;;5.05;1.67;;;;;;;4.01;100.00;68831.25;5070468;28;20052;-48
2024/03/24 04:46:07;;;;;;;3.63;1.45;;;;;;;3.97;100.00;68826.63;5087034;28;20403;-48
2024/03/24 04:48:34;;;;;;;4.53;1.70;;;;;;;4.00;100.00;68828.09;5090564;28;20101;-49
2024/03/24 04:51:01;;;;;;;5.32;1.73;;;;;;;4.01;100.00;68831.84;5087624;28;20056;-48
2024/03/24 04:53:28;;;;;;;3.65;1.50;;;;;;;4.00;100.00;68830.66;5086708;28;20463;-50
2024/03/24 04:55:54;;;;;;;6.07;2.00;;;;;;;3.96;100.00;68828.03;5072663;28;20039;-49
2024/03/24 04:58:23;;;;;;;5.60;1.52;;;;;;;3.98;100.00;68830.94;5090326;28;20126;-47
2024/03/24 05:00:49;;;;;;;3.90;1.52;;;;;;;3.95;100.00;68821.69;5089760;28;20125;-46
2024/03/24 05:03:16;;;;;;;4.10;1.50;;;;;;;3.97;100.00;68826.63;5090291;28;20052;-49
2024/03/24 05:05:45;;;;;;;2.83;1.40;;;;;;;3.96;100.00;68823.44;5090315;28;20123;-51
2024/03/24 05:08:14;;;;;;;3.95;1.50;;;;;;;3.92;100.00;68821.38;5090050;28;20139;-51
2024/03/24 05:10:41;;;;;;;6.10;2.30;;;;;;;3.91;100.00;68819.66;5090127;28;20382;-50
2024/03/24 05:13:09;;;;;;;6.05;1.65;;;;;;;3.86;100.00;68812.41;5089975;28;20054;-47
2024/03/24 05:15:37;;;;;;;2.55;1.20;;;;;;;3.87;100.00;68815.56;5089901;28;20043;-47
2024/03/24 05:18:08;;;;;;;4.47;1.35;;;;;;;3.84;100.00;68815.25;5073368;28;20055;-47
2024/03/24 05:20:35;;;;;;;4.13;1.38;;;;;;;3.85;100.00;68811.25;5087873;28;20044;-46
2024/03/24 05:23:05;;;;;;;3.78;1.67;;;;;;;3.88;100.00;68819.91;5068493;28;20040;-47
2024/03/24 05:25:33;;;;;;;4.80;1.33;;;;;;;3.88;100.00;68819.31;5056590;28;20052;-47
2024/03/24 05:28:00;;;;;;;4.20;1.40;;;;;;;3.86;100.00;68817.59;5089886;28;20054;-47
2024/03/24 05:30:27;;;;;;;4.15;1.50;;;;;;;3.85;100.00;68813.84;5090087;28;20051;-46
2024/03/24 05:32:56;;;;;;;6.75;1.70;;;;;;;3.86;100.00;68815.00;5072783;28;20048;-47
2024/03/24 05:35:22;;;;;;;3.80;1.38;;;;;;;3.87;100.00;68818.16;5089613;28;20051;-46
2024/03/24 05:37:49;;;;;;;2.95;1.23;;;;;;;3.84;100.00;68815.25;5089961;28;20581;-47
2024/03/24 05:40:15;;;;;;;8.35;1.80;;;;;;;3.83;100.00;68808.34;5073043;28;20442;-46
2024/03/24 05:42:42;;;;;;;6.18;1.60;;;;;;;3.80;100.00;68810.59;5089846;28;20043;-47
2024/03/24 05:45:09;;;;;;;5.50;1.60;;;;;;;3.78;100.00;68808.28;5089898;28;20044;-47
2024/03/24 05:47:36;;;;;;;4.25;1.65;;;;;;;3.77;100.00;68801.41;5089846;28;20514;-46
2024/03/24 05:50:07;;;;;;;3.50;1.52;;;;;;;3.76;100.00;68802.81;5089992;28;20513;-46
2024/03/24 05:52:36;;;;;;;4.55;1.52;;;;;;;3.76;100.00;68805.41;5089818;28;20514;-45
2024/03/24 05:55:04;;;;;;;6.15;2.28;;;;;;;3.75;100.00;68802.25;5090155;28;20487;-47
2024/03/24 05:57:31;;;;;;;4.70;1.40;;;;;;;3.76;100.00;68800.81;5089550;28;20044;-47
2024/03/24 05:59:57;;;;;;;7.57;1.70;;;;;;;3.78;100.00;68802.56;5089773;28;20080;-45
2024/03/24 06:02:25;;;;;;;5.80;1.73;;;;;;;3.77;100.00;68807.13;5089650;28;20121;-48
2024/03/24 06:04:51;;;;;;;4.95;1.88;;;;;;;3.75;100.00;68804.81;5072403;28;20048;-46
2024/03/24 06:07:19;;;;;;;5.13;2.17;;;;;;;3.76;100.00;68803.38;5089723;28;20044;-46
2024/03/24 06:09:45;;;;;;;5.05;1.67;;;;;;;3.80;100.00;68804.88;5089364;28;20044;-46
2024/03/24 06:12:12;;;;;;;6.25;1.80;;;;;;;3.83;100.00;68810.94;5088764;28;20052;-47
2024/03/24 06:14:40;;;;;;;3.35;1.60;;;;;;;3.85;100.00;68813.25;5090026;28;20044;-47
2024/03/24 06:17:08;;;;;;;5.35;1.73;;;;;;;3.89;100.00;68821.06;5092370;28;20040;-47
2024/03/24 06:19:34;;;;;;;6.15;2.10;;;;;;;3.95;100.00;68821.69;5076491;28;20036;-49
2024/03/24 06:22:01;;;;;;;5.78;2.00;;;;;;;3.93;100.00;68819.38;5093080;28;20073;-46
2024/03/24 06:24:29;;;;;;;5.82;1.80;;;;;;;3.98;100.00;68827.75;5091502;28;20044;-47
2024/03/24 06:26:56;;;;;;;3.35;1.60;;;;;;;3.94;100.00;68820.53;5089365;28;20044;-51
2024/03/24 06:29:22;;;;;;;5.20;2.13;;;;;;;3.93;100.00;68825.13;5091811;28;20040;-49
2024/03/24 06:31:50;;;;;;;8.32;2.58;;;;;;;3.94;100.00;68823.13;5092827;28;20032;-47
2024/03/24 06:34:16;;;;;;;7.22;2.22;;;;;;;3.97;100.00;68826.63;5075890;28;20044;-47
2024/03/24 06:36:44;;;;;;;8.98;2.20;;;;;;;3.95;100.00;68826.88;5091889;28;20054;-49
2024/03/24 06:39:10;;;;;;;5.13;1.70;;;;;;;3.94;100.00;68820.53;5088556;28;20056;-48
2024/03/24 06:41:41;;;;;;;4.47;1.70;;;;;;;3.92;100.00;68823.38;5090663;28;20063;-51
2024/03/24 06:44:12;;;;;;;9.00;1.95;;;;;;;3.94;100.00;68823.13;5092185;28;20089;-46
2024/03/24 06:46:42;;;;;;;6.80;1.90;;;;;;;3.94;100.00;68820.53;5091772;28;20072;-46
2024/03/24 06:49:09;;;;;;;7.70;2.13;;;;;;;3.98;100.00;68830.94;5089232;28;20036;-48
2024/03/24 06:51:36;;;;;;;6.75;2.28;;;;;;;3.98;100.00;68827.75;5088350;28;20048;-48
2024/03/24 06:54:03;;;;;;;9.15;2.60;;;;;;;3.99;100.00;68832.09;5087658;28;20488;-48
2024/03/24 06:56:30;;;;;;;8.73;2.50;;;;;;;4.00;100.00;68830.66;5089343;28;20805;-50
2024/03/24 06:58:57;;;;;;;12.02;3.63;;;;;;;4.07;100.00;68838.78;5091451;28;21210;-48
2024/03/24 07:01:24;;;;;;;8.40;2.60;;;;;;;4.13;100.00;68847.78;5092152;28;20040;-48
2024/03/24 07:03:51;;;;;;;9.50;2.63;;;;;;;4.16;100.00;68845.50;5092026;28;20051;-49
2024/03/24 07:06:18;;;;;;;7.03;2.40;;;;;;;4.22;100.00;68855.63;5092267;28;20054;-48
2024/03/24 07:08:44;;;;;;;7.32;2.45;;;;;;;4.26;100.00;68859.69;5092057;28;20063;-47
2024/03/24 07:11:11;;;;;;;9.27;2.33;;;;;;;4.32;100.00;68866.06;5092174;28;20422;-47
2024/03/24 07:13:37;;;;;;;8.18;2.80;;;;;;;4.31;100.00;68862.31;5091941;28;20044;-48
2024/03/24 07:16:06;;;;;;;9.05;2.30;;;;;;;4.31;100.00;68862.31;5092089;28;20036;-49
2024/03/24 07:18:32;;;;;;;7.75;2.33;;;;;;;4.34;100.00;68871.56;5092110;28;20040;-48
2024/03/24 07:21:00;;;;;;;9.13;2.80;;;;;;;4.38;100.00;68875.63;5091782;28;20036;-47
2024/03/24 07:23:26;;;;;;;8.40;2.53;;;;;;;4.37;100.00;68869.88;5091467;28;20097;-46
2024/03/24 07:25:53;;;;;;;8.75;2.35;;;;;;;4.41;100.00;68876.53;5091231;28;20032;-47
2024/03/24 07:28:20;;;;;;;9.48;2.50;;;;;;;4.43;100.00;68880.84;5092096;28;20495;-48
2024/03/24 07:30:47;;;;;;;7.22;2.63;;;;;;;4.45;100.00;68880.59;5088363;28;20043;-47
2024/03/24 07:33:17;;;;;;;9.63;2.40;;;;;;;4.44;100.00;68877.44;5089773;28;20075;-47
2024/03/24 07:35:44;;;;;;;14.57;3.13;;;;;;;4.46;100.00;68882.34;5091763;28;20046;-48
2024/03/24 07:38:11;;;;;;;10.93;2.40;;;;;;;4.47;100.00;68880.94;5091604;28;20048;-48
2024/03/24 07:40:38;;;;;;;9.90;2.67;;;;;;;4.55;100.00;68895.38;5091667;28;20032;-48
2024/03/24 07:43:04;;;;;;;12.00;2.53;;;;;;;4.61;100.00;68896.59;5091584;28;20130;-48
2024/03/24 07:45:32;;;;;;;7.80;2.88;;;;;;;4.71;100.00;68907.63;5091543;28;20502;-47
2024/03/24 07:47:58;;;;;;;17.13;3.55;;;;;;;4.77;100.00;68916.59;5091675;28;20043;-48
2024/03/24 07:50:27;;;;;;;10.55;3.20;;;;;;;4.78;100.00;68915.75;5091059;28;20044;-50
2024/03/24 07:52:53;;;;;;;10.23;2.85;;;;;;;4.80;100.00;68922.66;5074408;28;20089;-47
2024/03/24 07:55:20;;;;;;;10.57;3.25;;;;;;;4.77;100.00;68919.19;5091340;28;20127;-48
2024/03/24 07:57:46;;;;;;;7.32;3.15;;;;;;;4.84;100.00;68922.16;5074435;28;20043;-47
2024/03/24 08:00:14;;;;;;;12.93;3.67;;;;;;;4.89;100.00;68933.13;5091122;28;20055;-48
2024/03/24 08:02:40;;;;;;;13.90;4.32;;;;;;;5.13;100.00;68957.28;5091125;28;20482;-47
2024/03/24 08:05:09;;;;;;;14.10;4.03;;;;;;;5.28;100.00;68974.13;5091013;28;20036;-48
2024/03/24 08:07:36;;;;;;;13.52;4.05;;;;;;;5.45;100.00;68993.88;5091140;28;20052;-48
2024/03/24 08:10:04;;;;;;;11.45;4.18;;;;;;;5.52;100.00;69002.03;5090552;28;20421;-46
2024/03/24 08:12:33;;;;;;;13.93;4.55;;;;;;;5.59;100.00;69012.75;5071481;28;20139;-49
2024/03/24 08:15:00;;;;;;;17.08;4.50;;;;;;;5.75;100.00;69023.00;5089104;28;20043;-49
2024/03/24 08:17:27;;;;;;;13.10;4.85;;;;;;;5.91;100.00;69046.19;5073917;28;20097;-50
2024/03/24 08:19:54;;;;;;;15.18;4.43;;;;;;;5.96;100.00;69053.41;5090907;28;20039;-48
2024/03/24 08:22:21;;;;;;;14.18;4.20;;;;;;;6.01;100.00;69054.09;5090750;28;20634;-48
2024/03/24 08:24:50;;;;;;;16.67;5.28;;;;;;;6.17;100.00;69074.72;5090561;28;20040;-50
2024/03/24 08:27:16;;;;;;;17.10;4.70;;;;;;;6.31;100.00;69090.41;5090790;28;20051;-50
2024/03/24 08:29:47;;;;;;;13.73;4.65;;;;;;;6.40;100.00;69104.03;5088582;28;20104;-46
2024/03/24 08:32:24;;;;;;;16.20;4.75;;;;;;;6.63;100.00;69123.88;5069862;28;20159;-48
2024/03/24 08:34:57;;;;;;;14.85;4.47;;;;;;;6.75;100.00;69140.44;5069826;28;20122;-48
2024/03/24 08:37:24;;;;;;;14.77;4.47;;;;;;;6.79;100.00;69147.69;5089509;28;20093;-50
2024/03/24 08:39:51;;;;;;;15.15;4.55;;;;;;;6.69;100.00;69136.03;5086203;28;20386;-50
2024/03/24 08:42:18;;;;;;;13.27;4.45;;;;;;;6.66;100.00;69129.97;5087474;28;20101;-49
2024/03/24 08:44:44;;;;;;;14.30;4.15;;;;;;;6.56;100.00;69116.91;5089176;28;20046;-50
2024/03/24 08:47:12;;;;;;;14.15;4.35;;;;;;;6.41;100.00;69099.44;5090709;28;20052;-48
2024/03/24 08:49:38;;;;;;;13.60;3.40;;;;;;;6.29;100.00;69086.06;5087736;28;20040;-48
2024/03/24 08:52:06;;;;;;;14.02;3.50;;;;;;;6.34;100.00;69091.28;5086771;28;20062;-49
2024/03/24 08:54:32;;;;;;;12.55;3.33;;;;;;;6.37;100.00;69097.97;5090340;28;20051;-49
2024/03/24 08:57:00;;;;;;;10.10;3.28;;;;;;;6.35;100.00;69092.47;5090554;28;20503;-48
2024/03/24 08:59:27;;;;;;;12.07;2.88;;;;;;;6.40;100.00;69103.47;5088639;28;20376;-50
2024/03/24 09:01:54;;;;;;;10.77;2.60;;;;;;;6.39;100.00;69100.31;5086424;28;20055;-51
2024/03/24 09:04:22;;;;;;;11.18;3.17;;;;;;;6.43;100.00;69104.94;5089764;28;20048;-48
2024/03/24 09:06:49;;;;;;;14.95;3.47;;;;;;;6.52;100.00;69109.66;5090145;28;20509;-49
2024/03/24 09:09:15;;;;;;;9.15;3.33;;;;;;;6.61;100.00;69127.31;5090204;28;20052;-50
2024/03/24 09:11:42;;;;;;;12.48;4.00;;;;;;;6.67;100.00;69134.28;5090086;28;20464;-50
2024/03/24 09:14:10;;;;;;;12.75;4.50;;;;;;;6.69;100.00;69133.44;5090205;28;20092;-48
2024/03/24 09:16:37;;;;;;;9.98;3.83;;;;;;;6.71;100.00;69133.75;5087244;28;20040;-48
2024/03/24 09:19:06;;;;;;;14.75;3.65;;;;;;;6.70;100.00;69135.19;5086768;28;20040;-48
2024/03/24 09:21:33;;;;;;;10.32;2.50;;;;;;;6.67;100.00;69131.13;5087001;28;20094;-48
2024/03/24 09:23:59;;;;;;;10.98;2.17;;;;;;;6.56;100.00;69118.91;5089873;28;20050;-49
2024/03/24 09:26:26;;;;;;;7.65;2.45;;;;;;;6.49;100.00;69111.34;5089979;28;20040;-48
2024/03/24 09:28:52;;;;;;;15.30;2.33;;;;;;;6.39;100.00;69100.31;5089975;28;20044;-49
2024/03/24 09:31:22;;;;;;;10.68;2.88;;;;;;;6.35;100.00;69098.22;5089947;28;20052;-50
2024/03/24 09:33:50;;;;;;;6.82;2.20;;;;;;;6.30;100.00;69086.66;5090759;28;20036;-49
2024/03/24 09:36:19;;;;;;;7.97;2.30;;;;;;;6.25;100.00;69082.00;5070075;28;20055;-49
2024/03/24 09:38:45;;;;;;;9.80;2.58;;;;;;;6.22;100.00;69081.09;5085395;28;20075;-51
2024/03/24 09:41:13;;;;;;;10.63;2.40;;;;;;;6.18;100.00;69073.84;5086368;28;20403;-51
2024/03/24 09:43:39;;;;;;;14.40;3.13;;;;;;;6.22;100.00;69075.34;5086959;28;20048;-51
2024/03/24 09:46:07;;;;;;;10.63;2.55;;;;;;;6.19;100.00;69075.03;5086722;28;20154;-49
2024/03/24 09:48:39;;;;;;;11.63;2.40;;;;;;;6.16;100.00;69076.72;5089233;28;20051;-50
2024/03/24 09:51:09;;;;;;;9.23;2.20;;;;;;;6.15;100.00;69072.97;5089224;28;20055;-52
2024/03/24 09:53:37;;;;;;;9.32;2.92;;;;;;;6.12;100.00;69064.28;5091970;28;20039;-49
2024/03/24 09:56:08;;;;;;;10.10;2.10;;;;;;;6.17;100.00;69074.72;5091033;28;20491;-52
2024/03/24 09:58:35;;;;;;;8.55;1.98;;;;;;;6.19;100.00;69074.44;5091020;28;20062;-49
2024/03/24 10:01:03;;;;;;;7.18;1.95;;;;;;;6.19;100.00;69079.59;5090310;28;20442;-49
2024/03/24 10:03:29;;;;;;;9.57;2.30;;;;;;;6.10;100.00;69064.56;5090287;28;20036;-50
2024/03/24 10:06:01;;;;;;;9.48;2.40;;;;;;;6.12;100.00;69068.88;5089531;28;20032;-51
2024/03/24 10:08:31;;;;;;;8.60;2.00;;;;;;;6.14;100.00;69066.03;5090048;28;20055;-52
2024/03/24 10:11:26;;;;;;;8.57;1.70;;;;;;;6.08;100.00;69067.41;5092798;28;20056;-51
2024/03/24 10:13:52;;;;;;;9.88;2.03;;;;;;;6.03;100.00;69059.59;5093343;28;20054;-52
2024/03/24 10:16:19;;;;;;;8.23;1.50;;;;;;;5.96;100.00;69051.44;5091216;28;20040;-53
2024/03/24 10:18:46;;;;;;;5.32;1.40;;;;;;;6.01;100.00;69056.66;5073500;28;20484;-49
2024/03/24 10:21:14;;;;;;;7.65;2.03;;;;;;;6.09;100.00;69071.75;5092702;28;20070;-48
2024/03/24 10:23:40;;;;;;;7.35;1.52;;;;;;;6.13;100.00;69070.06;5075948;28;20044;-49
2024/03/24 10:26:08;;;;;;;9.18;1.70;;;;;;;6.23;100.00;69082.25;5091779;28;20086;-51
2024/03/24 10:28:34;;;;;;;11.07;2.05;;;;;;;6.38;100.00;69095.94;5090296;28;20407;-49
2024/03/24 10:31:05;;;;;;;4.72;1.27;;;;;;;6.49;100.00;69110.75;5092376;28;20040;-48
2024/03/24 10:33:33;;;;;;;7.82;1.65;;;;;;;6.59;100.00;69125.00;5092734;28;20054;-48
2024/03/24 10:36:00;;;;;;;8.98;1.80;;;;;;;6.69;100.00;69133.44;5075403;28;20456;-48
2024/03/24 10:38:28;;;;;;;8.00;2.47;;;;;;;6.71;100.00;69133.75;5089227;28;20079;-50
2024/03/24 10:40:57;;;;;;;11.00;2.17;;;;;;;6.80;100.00;69143.66;5089145;28;20388;-50
2024/03/24 10:43:24;;;;;;;5.80;1.60;;;;;;;6.87;100.00;69159.00;5091506;28;20048;-49
2024/03/24 10:45:52;;;;;;;7.43;1.63;;;;;;;6.94;100.00;69161.97;5090307;28;20050;-50
2024/03/24 10:48:26;;;;;;;6.18;1.85;;;;;;;7.01;100.00;69169.50;5089541;28;20040;-49
2024/03/24 10:50:54;;;;;;;9.60;2.30;;;;;;;7.14;100.00;69184.66;5089767;28;20063;-50
2024/03/24 10:53:21;;;;;;;5.43;1.67;;;;;;;7.13;100.00;69180.91;5092611;28;20036;-50
2024/03/24 10:55:51;;;;;;;8.80;2.03;;;;;;;7.16;100.00;69186.97;5092372;28;20040;-51
2024/03/24 10:58:21;;;;;;;8.68;2.00;;;;;;;7.20;100.00;69196.81;5089578;28;20375;-49
2024/03/24 11:00:49;;;;;;;9.27;2.17;;;;;;;7.26;100.00;69200.63;5088616;28;20052;-48
2024/03/24 11:03:16;;;;;;;7.65;2.65;;;;;;;7.47;100.00;69218.72;5088429;28;20546;-46
2024/03/24 11:05:45;;;;;;;12.68;1.80;;;;;;;7.56;100.00;69232.38;5088350;28;20441;-48
2024/03/24 11:08:13;;;;;;;12.93;2.00;;;;;;;7.51;100.00;69225.97;5088428;28;20052;-48
2024/03/24 11:10:43;;;;;;;10.18;2.10;;;;;;;7.49;100.00;69221.63;5088824;28;20112;-46
2024/03/24 11:13:14;;;;;;;7.22;1.60;;;;;;;7.56;100.00;69229.19;5088738;28;20044;-50
2024/03/24 11:15:42;;;;;;;8.70;2.22;;;;;;;7.62;100.00;69241.38;5091464;28;20843;-50
2024/03/24 11:18:17;;;;;;;11.70;1.92;;;;;;;7.59;100.00;69235.88;5071662;28;20044;-50
2024/03/24 11:20:44;;;;;;;9.38;2.00;;;;;;;7.67;100.00;69244.03;5088042;28;20052;-51
2024/03/24 11:23:22;;;;;;;11.80;2.15;;;;;;;7.77;100.00;69250.47;5090853;28;20059;-49
2024/03/24 11:25:50;;;;;;;11.20;2.50;;;;;;;7.82;100.00;69263.50;5088759;28;20093;-53
2024/03/24 11:28:40;;;;;;;9.95;2.10;;;;;;;7.94;100.00;69277.50;5088873;28;20032;-52
2024/03/24 11:31:15;;;;;;;11.15;2.35;;;;;;;8.04;100.00;69288.53;5075026;28;20060;-52